Time;durP1;ratioP1;P1;durP2;ratioP2;P2;SDS_P1;SDS_P2;PMS_P1;PMS_P2;Temp;Humidity;BMP_temperature;BMP_pressure;BME280_temperature;BME280_humidity;BME280_pressure;Samples;Min_cycle;Max_cycle;Signal;HPM_P1;HPM_P2
2023/09/08 00:01:11;;;;;;;14.30;11.77;;;17.00;99.90;;;;;;4593664;19;20332;-73
2023/09/08 00:02:47;;;;;;;12.85;11.40;;;17.00;99.90;;;;;;4593796;19;20102;-74
2023/09/08 00:04:21;;;;;;;13.25;11.85;;;17.00;99.90;;;;;;4593675;19;20006;-73
2023/09/08 00:05:55;;;;;;;13.40;12.00;;;17.00;99.90;;;;;;4592428;19;20007;-73
2023/09/08 00:07:32;;;;;;;13.68;12.05;;;17.00;99.90;;;;;;4593966;19;20007;-73
2023/09/08 00:09:07;;;;;;;13.98;12.50;;;17.00;99.90;;;;;;4593167;19;20006;-73
2023/09/08 00:10:43;;;;;;;14.57;12.18;;;17.00;99.90;;;;;;4592139;19;20003;-73
2023/09/08 00:12:19;;;;;;;15.57;12.60;;;17.00;99.90;;;;;;4593260;19;20007;-73
2023/09/08 00:13:53;;;;;;;13.32;11.93;;;17.00;99.90;;;;;;4593404;19;20002;-73
2023/09/08 00:15:28;;;;;;;14.10;12.30;;;17.00;99.90;;;;;;4593408;19;20025;-73
2023/09/08 00:17:04;;;;;;;13.93;12.40;;;17.00;99.90;;;;;;4593466;19;20013;-73
2023/09/08 00:18:38;;;;;;;13.32;11.93;;;17.00;99.90;;;;;;4593639;19;20310;-73
2023/09/08 00:20:12;;;;;;;13.82;12.43;;;17.00;99.90;;;;;;4591789;19;20015;-73
2023/09/08 00:21:47;;;;;;;13.63;12.23;;;17.00;99.90;;;;;;4593390;19;20306;-73
2023/09/08 00:23:22;;;;;;;14.50;12.35;;;17.00;99.90;;;;;;4593204;19;20003;-73
2023/09/08 00:24:57;;;;;;;14.57;12.98;;;17.00;99.90;;;;;;4592809;19;20002;-73
2023/09/08 00:26:33;;;;;;;13.80;12.32;;;17.00;99.90;;;;;;4593561;19;20006;-73
2023/09/08 00:28:07;;;;;;;14.93;12.30;;;16.90;99.90;;;;;;4592132;19;20469;-73
2023/09/08 00:29:43;;;;;;;14.95;13.40;;;16.90;99.90;;;;;;4591935;19;20029;-73
2023/09/08 00:31:18;;;;;;;14.27;12.73;;;16.90;99.90;;;;;;4593167;19;20452;-73
2023/09/08 00:32:52;;;;;;;15.32;13.27;;;16.90;99.90;;;;;;4591664;19;19999;-73
2023/09/08 00:34:26;;;;;;;16.35;14.43;;;16.80;99.90;;;;;;4592698;19;20002;-73
2023/09/08 00:36:03;;;;;;;18.08;16.17;;;16.90;99.90;;;;;;4593098;19;20090;-73
2023/09/08 00:37:37;;;;;;;17.50;15.52;;;16.80;99.90;;;;;;4593270;19;20007;-73
2023/09/08 00:39:14;;;;;;;18.80;15.50;;;16.80;99.90;;;;;;4592725;19;20353;-72
2023/09/08 00:40:50;;;;;;;17.58;14.77;;;16.80;99.90;;;;;;4591687;19;20006;-73
2023/09/08 00:42:24;;;;;;;15.88;13.95;;;16.80;99.90;;;;;;4592839;19;20002;-73
2023/09/08 00:43:58;;;;;;;16.40;14.45;;;16.80;99.90;;;;;;4591495;19;20014;-73
2023/09/08 00:45:36;;;;;;;16.13;14.40;;;16.70;99.90;;;;;;4591791;19;19999;-73
2023/09/08 00:47:11;;;;;;;17.35;14.13;;;16.80;99.90;;;;;;4592945;19;20009;-73
2023/09/08 00:48:45;;;;;;;16.80;15.00;;;16.70;99.90;;;;;;4591568;19;20002;-73
2023/09/08 00:50:21;;;;;;;15.90;13.82;;;16.80;99.90;;;;;;4590390;19;20351;-73
2023/09/08 00:51:55;;;;;;;15.20;13.57;;;16.80;99.90;;;;;;4592611;19;20021;-73
2023/09/08 00:53:30;;;;;;;15.80;14.15;;;16.80;99.90;;;;;;4592645;19;20450;-73
2023/09/08 00:55:06;;;;;;;15.25;13.68;;;16.80;99.90;;;;;;4591632;19;20003;-73
2023/09/08 00:56:40;;;;;;;18.25;14.60;;;16.80;99.90;;;;;;4592576;19;19999;-73
2023/09/08 00:58:14;;;;;;;16.73;14.75;;;16.80;99.90;;;;;;4592633;19;20002;-73
2023/09/08 00:59:50;;;;;;;17.50;14.60;;;16.80;99.90;;;;;;4590567;19;20002;-73
2023/09/08 01:01:25;;;;;;;18.63;14.20;;;16.80;99.90;;;;;;4592461;19;20026;-73
2023/09/08 01:03:00;;;;;;;14.40;12.85;;;16.80;99.90;;;;;;4592406;19;19999;-73
2023/09/08 01:04:40;;;;;;;13.27;11.88;;;16.70;99.90;;;;;;4591112;19;20302;-73
2023/09/08 01:06:15;;;;;;;14.15;11.93;;;16.80;99.90;;;;;;4591428;19;20461;-73
2023/09/08 01:07:50;;;;;;;14.82;13.32;;;16.70;99.90;;;;;;4592417;19;20425;-73
2023/09/08 01:09:26;;;;;;;17.45;13.57;;;16.70;99.90;;;;;;4592025;19;20021;-73
2023/09/08 01:11:00;;;;;;;15.38;13.77;;;16.70;99.90;;;;;;4592590;19;20002;-73
2023/09/08 01:12:35;;;;;;;15.10;11.95;;;16.70;99.90;;;;;;4592372;19;20386;-73
2023/09/08 01:14:12;;;;;;;15.25;13.32;;;16.60;99.90;;;;;;4592304;19;20025;-73
2023/09/08 01:15:46;;;;;;;15.15;13.50;;;16.60;99.90;;;;;;4591258;19;20010;-73
2023/09/08 01:17:22;;;;;;;16.65;14.30;;;16.60;99.90;;;;;;4591886;19;20002;-73
2023/09/08 01:18:57;;;;;;;16.55;13.75;;;16.60;99.90;;;;;;4590980;19;20037;-74
2023/09/08 01:20:41;;;;;;;17.50;13.98;;;16.60;99.90;;;;;;4590238;19;20026;-73
2023/09/08 01:22:26;;;;;;;15.60;13.68;;;16.60;99.90;;;;;;4590906;19;20302;-73
2023/09/08 01:24:24;;;;;;;15.88;13.82;;;16.50;99.90;;;;;;4592024;19;20006;-73
2023/09/08 01:26:04;;;;;;;15.60;13.25;;;16.60;99.90;;;;;;4589885;19;20081;-73
2023/09/08 01:27:41;;;;;;;13.93;12.45;;;16.60;99.90;;;;;;4590910;19;19998;-73
2023/09/08 01:29:16;;;;;;;14.90;13.30;;;16.50;99.90;;;;;;4591476;19;20029;-73
2023/09/08 01:30:51;;;;;;;14.27;12.80;;;16.50;99.90;;;;;;4590932;19;20002;-73
2023/09/08 01:32:25;;;;;;;14.25;12.48;;;16.50;99.90;;;;;;4590588;19;20087;-73
2023/09/08 01:34:06;;;;;;;15.82;13.68;;;16.50;99.90;;;;;;4590987;19;20010;-73
2023/09/08 01:35:42;;;;;;;13.65;12.25;;;16.50;99.90;;;;;;4590657;19;20525;-73
2023/09/08 01:37:17;;;;;;;15.10;13.60;;;16.40;99.90;;;;;;4590595;19;20001;-73
2023/09/08 01:38:53;;;;;;;15.32;13.43;;;16.40;99.90;;;;;;4591937;19;20009;-73
2023/09/08 01:40:27;;;;;;;14.68;13.13;;;16.50;99.90;;;;;;4590362;19;20329;-73
2023/09/08 01:42:02;;;;;;;14.70;13.18;;;16.40;99.90;;;;;;4591808;19;20003;-73
2023/09/08 01:43:37;;;;;;;13.00;11.60;;;16.40;99.90;;;;;;4590546;19;20031;-73
2023/09/08 01:45:11;;;;;;;14.18;12.35;;;16.40;99.90;;;;;;4590909;19;20011;-73
2023/09/08 01:46:46;;;;;;;13.98;12.13;;;16.40;99.90;;;;;;4591996;19;20078;-73
2023/09/08 01:48:21;;;;;;;14.73;13.23;;;16.40;99.90;;;;;;4592097;19;20007;-73
2023/09/08 01:49:56;;;;;;;15.45;13.95;;;16.50;99.90;;;;;;4590883;19;20010;-73
2023/09/08 01:51:30;;;;;;;16.08;13.43;;;16.40;99.90;;;;;;4591694;19;20035;-73
2023/09/08 01:53:05;;;;;;;16.30;13.63;;;16.40;99.90;;;;;;4592028;19;20011;-73
2023/09/08 01:54:40;;;;;;;14.45;11.80;;;16.40;99.90;;;;;;4590546;19;20316;-73
2023/09/08 01:56:15;;;;;;;15.00;12.05;;;16.40;99.90;;;;;;4591257;19;20020;-73
2023/09/08 01:57:50;;;;;;;14.70;12.48;;;16.40;99.90;;;;;;4591651;19;20011;-73
2023/09/08 01:59:24;;;;;;;15.13;12.80;;;16.30;99.90;;;;;;4591153;19;20010;-73
2023/09/08 02:01:05;;;;;;;13.25;11.93;;;16.30;99.90;;;;;;4591836;19;20003;-73
2023/09/08 02:02:41;;;;;;;15.52;12.20;;;16.30;99.90;;;;;;4591794;19;20011;-73
2023/09/08 02:04:15;;;;;;;12.82;10.98;;;16.30;99.90;;;;;;4590426;19;20339;-73
2023/09/08 02:05:50;;;;;;;12.27;10.98;;;16.30;99.90;;;;;;4589010;19;19998;-73
2023/09/08 02:07:25;;;;;;;12.45;11.15;;;16.30;99.90;;;;;;4590167;19;20082;-73
2023/09/08 02:09:01;;;;;;;13.30;11.95;;;16.30;99.90;;;;;;4591069;19;20003;-73
2023/09/08 02:10:35;;;;;;;14.90;13.30;;;16.30;99.90;;;;;;4591891;19;20011;-73
2023/09/08 02:12:12;;;;;;;14.75;13.13;;;16.30;99.90;;;;;;4591703;19;20430;-73
2023/09/08 02:13:46;;;;;;;14.98;13.38;;;16.30;99.90;;;;;;4591308;19;20003;-73
2023/09/08 02:15:20;;;;;;;16.52;13.20;;;16.30;99.90;;;;;;4591569;19;20002;-73
2023/09/08 02:16:56;;;;;;;14.60;13.13;;;16.30;99.90;;;;;;4591594;19;20019;-73
2023/09/08 02:18:30;;;;;;;13.35;11.95;;;16.30;99.90;;;;;;4593071;19;20305;-73
2023/09/08 02:20:06;;;;;;;14.52;13.13;;;16.30;99.90;;;;;;4592829;19;20380;-73
2023/09/08 02:21:53;;;;;;;14.32;12.48;;;16.40;99.90;;;;;;4595577;19;20023;-73
2023/09/08 02:23:27;;;;;;;14.27;12.80;;;16.30;99.90;;;;;;4595638;19;20015;-73
2023/09/08 02:25:01;;;;;;;13.48;11.57;;;16.30;99.90;;;;;;4595468;19;20002;-73
2023/09/08 02:26:38;;;;;;;13.32;11.95;;;16.30;99.90;;;;;;4595831;19;20318;-73
2023/09/08 02:28:13;;;;;;;13.23;11.82;;;16.30;99.90;;;;;;4594698;19;20078;-73
2023/09/08 02:29:48;;;;;;;14.35;12.85;;;16.30;99.90;;;;;;4594349;19;20030;-73
2023/09/08 02:31:23;;;;;;;13.98;12.48;;;16.20;99.90;;;;;;4595722;19;20003;-73
2023/09/08 02:32:57;;;;;;;15.07;12.38;;;16.20;99.90;;;;;;4595835;19;20409;-73
2023/09/08 02:34:37;;;;;;;13.85;12.40;;;16.20;99.90;;;;;;4595575;19;20295;-73
2023/09/08 02:36:12;;;;;;;12.73;11.52;;;16.10;99.90;;;;;;4594527;19;20018;-73
2023/09/08 02:37:47;;;;;;;14.27;11.85;;;16.10;99.90;;;;;;4595502;19;20369;-73
2023/09/08 02:39:23;;;;;;;12.30;11.00;;;16.10;99.90;;;;;;4594772;19;20021;-73
2023/09/08 02:40:58;;;;;;;13.77;12.18;;;16.10;99.90;;;;;;4595459;19;20066;-73
2023/09/08 02:42:34;;;;;;;15.20;13.60;;;16.10;99.90;;;;;;4595682;19;20417;-73
2023/09/08 02:44:08;;;;;;;13.32;11.93;;;16.10;99.90;;;;;;4595305;19;20429;-73
2023/09/08 02:45:44;;;;;;;14.93;12.30;;;16.10;99.90;;;;;;4594346;19;20021;-73
2023/09/08 02:47:19;;;;;;;14.75;12.63;;;16.10;99.90;;;;;;4595553;19;20025;-73
2023/09/08 02:48:54;;;;;;;14.63;12.55;;;16.10;99.90;;;;;;4595283;19;20002;-73
2023/09/08 02:50:29;;;;;;;15.07;12.65;;;16.10;99.90;;;;;;4592269;19;20041;-73
2023/09/08 02:52:04;;;;;;;14.05;12.43;;;16.00;99.90;;;;;;4594786;19;20024;-73
2023/09/08 02:53:37;;;;;;;15.30;12.77;;;16.00;99.90;;;;;;4595401;19;20414;-73
2023/09/08 02:55:13;;;;;;;13.60;12.15;;;16.10;99.90;;;;;;4595877;19;20017;-73
2023/09/08 02:56:48;;;;;;;13.70;12.10;;;16.10;99.90;;;;;;4595089;19;20292;-73
2023/09/08 02:58:22;;;;;;;14.15;11.85;;;16.10;99.90;;;;;;4595299;19;20026;-73
2023/09/08 02:59:58;;;;;;;12.95;11.60;;;16.10;99.90;;;;;;4593687;19;20006;-73
2023/09/08 03:01:32;;;;;;;14.65;11.98;;;16.10;99.90;;;;;;4594990;19;20003;-73
2023/09/08 03:03:07;;;;;;;14.85;13.00;;;16.10;99.90;;;;;;4595176;19;20351;-73
2023/09/08 03:04:42;;;;;;;14.75;13.13;;;16.00;99.90;;;;;;4593487;19;20007;-73
2023/09/08 03:06:19;;;;;;;17.30;15.32;;;16.00;99.90;;;;;;4594867;19;19995;-73
2023/09/08 03:07:53;;;;;;;18.52;16.40;;;16.00;99.90;;;;;;4595189;19;20013;-73
2023/09/08 03:09:29;;;;;;;20.33;16.05;;;16.00;99.90;;;;;;4592703;19;20010;-73
2023/09/08 03:11:05;;;;;;;17.20;14.85;;;16.00;99.90;;;;;;4594450;19;20310;-73
2023/09/08 03:12:39;;;;;;;16.75;14.68;;;15.90;99.90;;;;;;4594866;19;20312;-73
2023/09/08 03:14:14;;;;;;;17.58;14.23;;;16.00;99.90;;;;;;4595086;19;20006;-73
2023/09/08 03:15:50;;;;;;;15.48;13.60;;;15.90;99.90;;;;;;4594726;19;20019;-73
2023/09/08 03:17:24;;;;;;;18.65;14.25;;;16.00;99.90;;;;;;4594665;19;20002;-73
2023/09/08 03:19:02;;;;;;;18.10;14.68;;;16.00;99.90;;;;;;4594969;19;20029;-73
2023/09/08 03:20:37;;;;;;;17.48;14.30;;;16.00;99.90;;;;;;4593134;19;20430;-73
2023/09/08 03:22:11;;;;;;;17.92;13.45;;;16.00;99.90;;;;;;4594911;19;20033;-73
2023/09/08 03:23:47;;;;;;;15.15;13.15;;;15.90;99.90;;;;;;4594866;19;20445;-73
2023/09/08 03:25:21;;;;;;;15.68;13.18;;;16.00;99.90;;;;;;4594064;19;20011;-73
2023/09/08 03:26:55;;;;;;;15.02;13.43;;;16.00;99.90;;;;;;4594744;19;20299;-74
2023/09/08 03:28:31;;;;;;;15.30;13.70;;;16.00;99.90;;;;;;4594483;19;20023;-73
2023/09/08 03:30:05;;;;;;;15.05;13.13;;;16.00;99.90;;;;;;4590685;19;20042;-73
2023/09/08 03:31:41;;;;;;;15.00;12.07;;;16.00;99.90;;;;;;4594381;19;20005;-73
2023/09/08 03:33:17;;;;;;;14.73;12.23;;;16.00;99.90;;;;;;4593311;19;20318;-73
2023/09/08 03:34:51;;;;;;;13.27;11.93;;;16.00;99.90;;;;;;4594275;19;20002;-73
2023/09/08 03:36:26;;;;;;;14.00;12.10;;;15.90;99.90;;;;;;4594285;19;20001;-73
2023/09/08 03:38:01;;;;;;;12.65;11.35;;;15.90;99.90;;;;;;4594379;19;20002;-73
2023/09/08 03:39:35;;;;;;;12.40;11.13;;;15.90;99.90;;;;;;4593487;19;20430;-73
2023/09/08 03:41:09;;;;;;;13.02;10.98;;;15.90;99.90;;;;;;4594192;19;20025;-74
2023/09/08 03:42:45;;;;;;;12.95;11.52;;;15.90;99.90;;;;;;4594488;19;20422;-71
2023/09/08 03:44:20;;;;;;;11.73;10.30;;;15.90;99.90;;;;;;4594140;19;20310;-73
2023/09/08 03:45:54;;;;;;;11.88;10.65;;;15.90;99.90;;;;;;4593215;19;20005;-72
2023/09/08 03:47:29;;;;;;;12.60;11.30;;;15.90;99.90;;;;;;4594166;19;20007;-73
2023/09/08 03:49:03;;;;;;;13.13;11.60;;;15.90;99.90;;;;;;4593936;19;20037;-73
2023/09/08 03:50:38;;;;;;;13.95;11.90;;;15.90;99.90;;;;;;4592616;19;20050;-73
2023/09/08 03:52:13;;;;;;;13.30;11.90;;;15.90;99.90;;;;;;4594061;19;20009;-75
2023/09/08 03:53:49;;;;;;;13.90;12.20;;;15.90;99.90;;;;;;4594477;19;19998;-73
2023/09/08 03:55:23;;;;;;;13.60;12.20;;;15.90;99.90;;;;;;4592723;19;20037;-74
2023/09/08 03:57:00;;;;;;;13.15;11.75;;;15.90;99.90;;;;;;4593310;19;20074;-78
2023/09/08 03:58:35;;;;;;;12.50;11.20;;;15.90;99.90;;;;;;4593786;19;20010;-76
2023/09/08 04:00:12;;;;;;;13.00;11.60;;;15.90;99.90;;;;;;4592543;19;20016;-75
2023/09/08 04:01:47;;;;;;;13.90;12.07;;;15.90;99.90;;;;;;4594224;19;20089;-75
2023/09/08 04:03:21;;;;;;;14.20;12.70;;;15.90;99.90;;;;;;4594195;19;20039;-76
2023/09/08 04:04:55;;;;;;;15.65;12.40;;;15.90;99.90;;;;;;4593833;19;20002;-78
2023/09/08 04:06:33;;;;;;;12.88;11.18;;;15.90;99.90;;;;;;4594526;19;20283;-75
2023/09/08 04:08:09;;;;;;;13.10;11.80;;;15.90;99.90;;;;;;4593723;19;20430;-74
2023/09/08 04:09:45;;;;;;;14.63;11.63;;;16.20;99.90;;;;;;4592589;19;20014;-73
2023/09/08 04:11:20;;;;;;;13.82;10.68;;;16.80;99.90;;;;;;4593903;19;20291;-74
2023/09/08 04:12:54;;;;;;;15.95;10.68;;;17.30;99.90;;;;;;4593607;19;20014;-75
2023/09/08 04:14:30;;;;;;;15.40;11.00;;;17.70;99.90;;;;;;4593766;19;20007;-74
2023/09/08 04:16:05;;;;;;;14.70;11.38;;;18.10;99.90;;;;;;4593558;19;20010;-73
2023/09/08 04:17:40;;;;;;;15.57;11.30;;;18.40;99.90;;;;;;4592135;19;19998;-77
2023/09/08 04:19:15;;;;;;;14.18;10.27;;;18.60;99.90;;;;;;4592464;19;20069;-73
2023/09/08 04:20:51;;;;;;;12.23;10.48;;;18.80;99.90;;;;;;4592397;19;20015;-74
2023/09/08 04:22:25;;;;;;;11.52;10.23;;;19.00;99.90;;;;;;4593333;19;20313;-73
2023/09/08 04:24:00;;;;;;;12.30;10.20;;;19.10;99.90;;;;;;4593323;19;20003;-73
2023/09/08 04:25:36;;;;;;;15.32;10.68;;;19.20;99.90;;;;;;4592646;19;20010;-73
2023/09/08 04:27:10;;;;;;;13.40;10.38;;;19.30;99.90;;;;;;4593294;19;20002;-73
2023/09/08 04:28:45;;;;;;;11.07;9.38;;;19.40;99.90;;;;;;4593239;19;20298;-74
2023/09/08 04:30:21;;;;;;;12.25;10.90;;;19.50;99.90;;;;;;4592114;19;20007;-73
2023/09/08 04:31:55;;;;;;;11.63;9.48;;;19.60;99.90;;;;;;4593156;19;20376;-73
2023/09/08 04:33:30;;;;;;;13.95;9.77;;;19.70;99.90;;;;;;4593145;19;20006;-73
2023/09/08 04:35:06;;;;;;;12.05;9.77;;;19.80;99.90;;;;;;4591845;19;20013;-73
2023/09/08 04:36:40;;;;;;;13.10;9.88;;;19.80;99.90;;;;;;4591975;19;20318;-73
2023/09/08 04:38:14;;;;;;;19.10;11.13;;;19.90;99.90;;;;;;4592629;19;20025;-73
2023/09/08 04:39:49;;;;;;;13.85;10.52;;;20.00;99.90;;;;;;4592111;19;20422;-73
2023/09/08 04:41:23;;;;;;;13.77;10.93;;;20.10;99.90;;;;;;4592478;19;20009;-73
2023/09/08 04:42:57;;;;;;;13.30;10.38;;;20.20;99.90;;;;;;4593155;19;20422;-73
2023/09/08 04:44:32;;;;;;;13.35;11.07;;;20.30;99.90;;;;;;4591548;19;20006;-73
2023/09/08 04:46:08;;;;;;;14.27;10.55;;;20.40;99.90;;;;;;4590804;19;20006;-73
2023/09/08 04:47:42;;;;;;;14.30;10.68;;;20.50;99.90;;;;;;4592835;19;20421;-75
2023/09/08 04:49:18;;;;;;;14.77;10.73;;;20.50;99.90;;;;;;4592609;19;20006;-74
2023/09/08 04:50:52;;;;;;;12.88;9.98;;;20.60;99.90;;;;;;4593072;19;20035;-73
2023/09/08 04:52:26;;;;;;;13.68;10.07;;;20.70;99.90;;;;;;4592766;19;20002;-73
2023/09/08 04:54:02;;;;;;;13.00;10.45;;;20.80;99.90;;;;;;4592631;19;20426;-74
2023/09/08 04:55:36;;;;;;;14.68;9.38;;;20.80;99.90;;;;;;4592274;19;20014;-73
2023/09/08 04:57:10;;;;;;;12.75;9.40;;;20.80;99.90;;;;;;4592386;19;20002;-73
2023/09/08 04:58:45;;;;;;;10.98;9.15;;;20.90;99.90;;;;;;4593135;19;20440;-73
2023/09/08 05:00:19;;;;;;;12.52;8.90;;;20.90;99.90;;;;;;4591245;19;20010;-73
2023/09/08 05:01:54;;;;;;;12.80;8.73;;;20.90;99.90;;;;;;4592614;19;20007;-75
2023/09/08 05:03:30;;;;;;;14.32;9.48;;;21.00;99.90;;;;;;4593306;19;20082;-74
2023/09/08 05:05:05;;;;;;;12.88;9.20;;;21.00;99.90;;;;;;4591235;19;20019;-78
2023/09/08 05:06:39;;;;;;;12.27;9.60;;;21.00;99.90;;;;;;4592384;19;20006;-77
2023/09/08 05:08:15;;;;;;;12.43;10.05;;;21.00;99.90;;;;;;4592757;19;20066;-78
2023/09/08 05:09:49;;;;;;;12.65;9.18;;;21.00;99.90;;;;;;4591649;19;20011;-78
2023/09/08 05:11:23;;;;;;;12.15;9.27;;;21.00;99.90;;;;;;4592542;19;20002;-76
2023/09/08 05:12:58;;;;;;;11.35;9.52;;;21.00;99.90;;;;;;4592924;19;20081;-78
2023/09/08 05:14:33;;;;;;;14.23;10.68;;;21.00;99.90;;;;;;4592693;19;19998;-75
2023/09/08 05:16:12;;;;;;;13.90;10.73;;;21.00;99.90;;;;;;4592496;19;20006;-75
2023/09/08 05:17:49;;;;;;;13.48;9.50;;;21.00;99.90;;;;;;4592485;19;20029;-75
2023/09/08 05:19:23;;;;;;;12.05;9.43;;;21.00;99.90;;;;;;4591944;19;20008;-78
2023/09/08 05:20:58;;;;;;;18.55;10.02;;;21.10;99.90;;;;;;4591208;19;20022;-76
2023/09/08 05:22:35;;;;;;;14.02;10.45;;;21.00;99.90;;;;;;4592219;19;20448;-73
2023/09/08 05:24:09;;;;;;;11.38;9.38;;;21.10;99.90;;;;;;4591676;19;20299;-74
2023/09/08 05:25:44;;;;;;;11.40;9.27;;;21.10;99.90;;;;;;4591252;19;20027;-74
2023/09/08 05:27:19;;;;;;;12.20;9.82;;;21.10;99.90;;;;;;4590885;19;20318;-74
2023/09/08 05:28:53;;;;;;;11.30;8.88;;;21.10;99.90;;;;;;4592041;19;19999;-74
2023/09/08 05:30:27;;;;;;;16.02;10.90;;;21.10;99.90;;;;;;4590948;19;20418;-73
2023/09/08 05:32:04;;;;;;;11.38;8.70;;;21.10;99.90;;;;;;4592086;19;20030;-74
2023/09/08 05:33:38;;;;;;;13.48;9.35;;;21.10;99.90;;;;;;4590711;19;20015;-74
2023/09/08 05:35:12;;;;;;;12.35;9.70;;;21.10;99.90;;;;;;4590930;19;20011;-73
2023/09/08 05:36:48;;;;;;;11.18;9.40;;;21.20;99.90;;;;;;4591722;19;20035;-73
2023/09/08 05:38:22;;;;;;;13.73;11.00;;;21.20;99.90;;;;;;4591928;19;20002;-73
2023/09/08 05:39:56;;;;;;;15.88;10.40;;;21.20;99.90;;;;;;4590872;19;20018;-73
2023/09/08 05:41:33;;;;;;;13.13;10.75;;;21.20;99.90;;;;;;4590606;19;20006;-73
2023/09/08 05:43:07;;;;;;;15.00;10.23;;;21.20;99.90;;;;;;4591669;19;20357;-73
2023/09/08 05:44:41;;;;;;;13.18;10.73;;;21.20;99.90;;;;;;4590371;19;20010;-74
2023/09/08 05:46:17;;;;;;;18.92;10.75;;;21.20;99.90;;;;;;4590316;19;20033;-73
2023/09/08 05:47:52;;;;;;;18.00;10.65;;;21.20;99.90;;;;;;4590708;19;20002;-73
2023/09/08 05:49:26;;;;;;;17.23;10.80;;;21.20;99.90;;;;;;4590665;19;20100;-73
2023/09/08 05:51:02;;;;;;;15.77;11.07;;;21.20;99.90;;;;;;4591815;19;20344;-74
2023/09/08 05:52:36;;;;;;;17.95;11.57;;;21.10;99.90;;;;;;4590351;19;20013;-73
2023/09/08 05:54:11;;;;;;;12.93;9.65;;;21.20;99.90;;;;;;4594334;19;20012;-73
2023/09/08 05:55:46;;;;;;;15.18;10.23;;;21.20;99.90;;;;;;4594976;19;20003;-73
2023/09/08 05:57:20;;;;;;;13.10;9.93;;;21.10;99.90;;;;;;4596021;19;20429;-73
2023/09/08 05:58:54;;;;;;;15.30;10.27;;;21.20;99.90;;;;;;4596310;19;19999;-74
2023/09/08 06:00:29;;;;;;;11.45;9.68;;;21.10;99.90;;;;;;4594262;19;20096;-73
2023/09/08 06:02:04;;;;;;;12.68;10.00;;;21.20;99.90;;;;;;4595192;19;20292;-73
2023/09/08 06:03:39;;;;;;;13.73;10.07;;;21.10;99.90;;;;;;4595050;19;20006;-73
2023/09/08 06:05:14;;;;;;;14.05;10.27;;;21.10;99.90;;;;;;4595401;19;20007;-73
2023/09/08 06:06:49;;;;;;;11.63;9.45;;;21.10;99.90;;;;;;4595141;19;20104;-73
2023/09/08 06:08:24;;;;;;;13.88;9.85;;;21.20;99.90;;;;;;4596078;19;20279;-73
2023/09/08 06:10:00;;;;;;;11.18;9.98;;;21.20;99.90;;;;;;4593371;19;20088;-73
2023/09/08 06:11:34;;;;;;;10.65;9.55;;;21.20;99.90;;;;;;4596056;19;20325;-73
2023/09/08 06:13:08;;;;;;;10.85;9.73;;;21.20;99.90;;;;;;4596084;19;19999;-73
2023/09/08 06:14:45;;;;;;;11.18;9.65;;;21.20;99.90;;;;;;4594802;19;20010;-74
2023/09/08 06:16:19;;;;;;;12.98;10.10;;;21.20;99.90;;;;;;4595698;19;20024;-73
2023/09/08 06:17:53;;;;;;;11.20;10.10;;;21.20;99.90;;;;;;4596207;19;19998;-74
2023/09/08 06:19:30;;;;;;;12.35;9.70;;;21.30;99.90;;;;;;4595086;19;20007;-74
2023/09/08 06:21:04;;;;;;;12.90;9.95;;;21.30;99.90;;;;;;4594793;19;20029;-73
2023/09/08 06:22:38;;;;;;;13.82;10.50;;;21.30;99.90;;;;;;4594639;19;20016;-73
2023/09/08 06:24:14;;;;;;;11.75;9.88;;;21.30;99.90;;;;;;4595505;19;20030;-73
2023/09/08 06:25:50;;;;;;;14.25;10.25;;;21.30;99.90;;;;;;4594924;19;20010;-73
2023/09/08 06:27:24;;;;;;;12.45;9.65;;;21.30;99.90;;;;;;4594667;19;20015;-73
2023/09/08 06:29:00;;;;;;;14.20;10.88;;;21.30;99.90;;;;;;4594393;19;20002;-74
2023/09/08 06:30:34;;;;;;;12.40;10.75;;;21.30;99.90;;;;;;4595010;19;20059;-73
2023/09/08 06:32:08;;;;;;;11.85;9.98;;;21.30;99.90;;;;;;4595708;19;20005;-73
2023/09/08 06:33:44;;;;;;;12.93;9.10;;;21.40;99.90;;;;;;4595588;19;20011;-73
2023/09/08 06:35:18;;;;;;;16.77;10.27;;;21.50;99.90;;;;;;4595605;19;20003;-73
2023/09/08 06:36:52;;;;;;;12.25;9.50;;;21.70;99.90;;;;;;4595500;19;20003;-73
2023/09/08 06:38:31;;;;;;;11.75;8.98;;;21.60;99.90;;;;;;4594100;19;20049;-73
2023/09/08 06:40:07;;;;;;;11.63;10.38;;;21.60;99.90;;;;;;4593914;19;20006;-73
2023/09/08 06:41:41;;;;;;;11.02;9.77;;;21.60;99.90;;;;;;4594148;19;20006;-73
2023/09/08 06:43:17;;;;;;;12.35;10.68;;;21.50;99.90;;;;;;4595403;19;20422;-73
2023/09/08 06:44:51;;;;;;;12.50;9.93;;;21.50;99.90;;;;;;4595364;19;20002;-73
2023/09/08 06:46:25;;;;;;;13.02;10.00;;;21.50;99.90;;;;;;4593979;19;20015;-73
2023/09/08 06:48:00;;;;;;;10.95;9.88;;;21.40;99.90;;;;;;4593905;19;20010;-73
2023/09/08 06:49:34;;;;;;;11.25;10.02;;;21.40;99.90;;;;;;4593864;19;20017;-74
2023/09/08 06:51:08;;;;;;;11.73;10.60;;;21.50;99.90;;;;;;4595262;19;20002;-73
2023/09/08 06:52:44;;;;;;;14.38;10.73;;;21.50;99.90;;;;;;4595155;19;20018;-73
2023/09/08 06:54:18;;;;;;;13.07;10.10;;;21.50;99.90;;;;;;4595222;19;20006;-73
2023/09/08 06:55:53;;;;;;;12.48;10.00;;;21.50;99.90;;;;;;4595348;19;20429;-73
2023/09/08 06:57:30;;;;;;;12.65;11.27;;;21.40;99.90;;;;;;4593838;19;20006;-73
2023/09/08 06:59:05;;;;;;;13.88;10.73;;;21.40;99.90;;;;;;4594520;19;20002;-73
2023/09/08 07:00:41;;;;;;;11.43;10.15;;;21.50;99.90;;;;;;4593696;19;20027;-73
2023/09/08 07:02:18;;;;;;;11.77;9.82;;;21.50;99.90;;;;;;4593316;19;20441;-73
2023/09/08 07:03:52;;;;;;;15.65;11.50;;;21.60;99.90;;;;;;4593975;19;20010;-73
2023/09/08 07:05:26;;;;;;;10.95;9.00;;;21.70;99.90;;;;;;4593932;19;20027;-73
2023/09/08 07:07:06;;;;;;;11.20;9.63;;;21.80;99.90;;;;;;4594821;19;20006;-73
2023/09/08 07:08:42;;;;;;;11.27;8.85;;;21.90;99.90;;;;;;4594514;19;20062;-73
2023/09/08 07:10:18;;;;;;;10.48;8.98;;;21.90;99.90;;;;;;4592723;19;20420;-73
2023/09/08 07:11:53;;;;;;;9.55;8.40;;;22.00;99.90;;;;;;4594741;19;20018;-73
2023/09/08 07:13:28;;;;;;;9.68;8.05;;;22.00;99.90;;;;;;4594364;19;20422;-73
2023/09/08 07:15:02;;;;;;;9.15;7.80;;;22.00;99.90;;;;;;4593935;19;20024;-73
2023/09/08 07:16:41;;;;;;;11.23;8.45;;;22.10;99.90;;;;;;4594625;19;20010;-74
2023/09/08 07:18:15;;;;;;;12.18;8.90;;;22.10;99.90;;;;;;4594644;19;20003;-74
2023/09/08 07:19:50;;;;;;;13.45;8.52;;;22.10;99.90;;;;;;4593381;19;20078;-74
2023/09/08 07:21:26;;;;;;;10.45;8.98;;;22.10;99.90;;;;;;4594939;19;20073;-74
2023/09/08 07:23:00;;;;;;;10.88;8.30;;;22.10;99.90;;;;;;4592724;19;20002;-73
2023/09/08 07:24:36;;;;;;;9.57;8.15;;;22.10;99.90;;;;;;4593700;19;20074;-73
2023/09/08 07:27:08;;;;;;;;;;;22.10;99.90;;;;;;4592015;19;20022;-73
2023/09/08 07:29:02;;;;;;;11.13;8.63;;;22.10;99.90;;;;;;4593586;19;20286;-73
2023/09/08 07:30:36;;;;;;;13.32;9.02;;;22.10;99.90;;;;;;4594201;19;20009;-74
2023/09/08 07:32:13;;;;;;;11.02;9.82;;;22.10;99.90;;;;;;4594334;19;20003;-73
2023/09/08 07:33:49;;;;;;;12.38;10.02;;;22.10;99.90;;;;;;4594385;19;20006;-73
2023/09/08 07:35:24;;;;;;;10.82;9.23;;;22.10;99.90;;;;;;4594938;19;20032;-73
2023/09/08 07:37:03;;;;;;;13.07;9.35;;;22.10;99.90;;;;;;4596538;19;20011;-73
2023/09/08 07:38:41;;;;;;;19.42;17.52;;;22.10;99.90;;;;;;4591214;19;20014;-73
2023/09/08 07:40:16;;;;;;;20.50;18.50;;;20.30;99.90;;;;;;4591565;19;20307;-73
2023/09/08 07:41:50;;;;;;;20.65;18.55;;;19.60;99.90;;;;;;4592917;19;20003;-75
2023/09/08 07:43:26;;;;;;;20.42;18.52;;;19.40;99.90;;;;;;4594178;19;20421;-74
2023/09/08 07:45:01;;;;;;;21.17;19.10;;;19.30;99.90;;;;;;4593845;19;20003;-73
2023/09/08 07:46:35;;;;;;;20.67;18.60;;;19.30;99.90;;;;;;4594322;19;20078;-73
2023/09/08 07:48:10;;;;;;;20.23;18.15;;;19.40;99.90;;;;;;4594321;19;20029;-73
2023/09/08 07:49:49;;;;;;;18.33;16.63;;;19.40;99.90;;;;;;4591870;19;20035;-74
2023/09/08 07:51:24;;;;;;;18.38;16.58;;;19.40;99.90;;;;;;4592650;19;20010;-73
2023/09/08 07:53:00;;;;;;;18.33;16.63;;;19.50;99.90;;;;;;4593618;19;20433;-73
2023/09/08 07:54:36;;;;;;;19.23;17.40;;;19.50;99.90;;;;;;4592871;19;19998;-73
2023/09/08 07:56:09;;;;;;;19.42;17.48;;;19.50;99.90;;;;;;4593596;19;19998;-73
2023/09/08 07:57:45;;;;;;;18.75;16.95;;;19.50;99.90;;;;;;4592860;19;20078;-73
2023/09/08 07:59:19;;;;;;;17.45;15.65;;;19.50;99.90;;;;;;4592072;19;20303;-73
2023/09/08 08:00:54;;;;;;;16.65;15.05;;;19.50;99.90;;;;;;4593762;19;19999;-73
2023/09/08 08:02:31;;;;;;;16.35;14.85;;;19.60;99.90;;;;;;4594062;19;20425;-73
2023/09/08 08:04:05;;;;;;;16.10;14.57;;;19.60;99.90;;;;;;4593833;19;20028;-73
2023/09/08 08:05:39;;;;;;;14.80;13.40;;;19.70;99.90;;;;;;4593318;19;20318;-73
2023/09/08 08:07:15;;;;;;;17.08;15.32;;;19.70;99.90;;;;;;4594008;19;20013;-73